Time;durP1;ratioP1;P1;durP2;ratioP2;P2;SDS_P1;SDS_P2;PMS_P1;PMS_P2;Temp;Humidity;BMP_temperature;BMP_pressure;BME280_temperature;BME280_humidity;BME280_pressure;Samples;Min_cycle;Max_cycle;Signal;HPM_P1;HPM_P2
2021/05/08 00:01:34;;;;;;;15.38;4.90;;;14.10;99.90;;;;;;4954167;28;20101;-79
2021/05/08 00:04:00;;;;;;;16.45;4.80;;;14.10;99.90;;;;;;4964724;28;20023;-79
2021/05/08 00:06:26;;;;;;;20.15;4.63;;;14.10;99.90;;;;;;4974111;28;20031;-80
2021/05/08 00:08:52;;;;;;;17.75;5.07;;;14.10;99.90;;;;;;4974022;28;20085;-79
2021/05/08 00:11:18;;;;;;;20.73;4.72;;;14.10;99.90;;;;;;4974056;28;20035;-79
2021/05/08 00:13:43;;;;;;;17.83;5.28;;;14.10;99.90;;;;;;4972895;28;20529;-79
2021/05/08 00:16:09;;;;;;;17.30;5.07;;;14.10;99.90;;;;;;4955202;28;20058;-79
2021/05/08 00:18:34;;;;;;;25.20;5.63;;;14.10;99.90;;;;;;4972556;28;20029;-80
2021/05/08 00:21:00;;;;;;;18.73;4.60;;;14.10;99.90;;;;;;4973984;28;20027;-79
2021/05/08 00:23:26;;;;;;;18.08;5.38;;;14.10;99.90;;;;;;4973894;28;20031;-75
2021/05/08 00:25:53;;;;;;;15.05;5.40;;;14.00;99.90;;;;;;4956096;28;20410;-79
2021/05/08 00:28:18;;;;;;;24.40;5.18;;;14.10;99.90;;;;;;4973873;28;20022;-79
2021/05/08 00:30:44;;;;;;;24.02;5.72;;;14.00;99.90;;;;;;4973787;28;20042;-79
2021/05/08 00:33:10;;;;;;;16.40;4.95;;;14.00;99.90;;;;;;4973850;28;20102;-79
2021/05/08 00:35:35;;;;;;;20.65;5.43;;;14.10;99.90;;;;;;4973344;28;20106;-80
2021/05/08 00:38:01;;;;;;;31.98;5.25;;;14.10;99.90;;;;;;4964169;28;20031;-79
2021/05/08 00:40:27;;;;;;;18.33;5.30;;;14.10;99.90;;;;;;4972104;28;20042;-79
2021/05/08 00:42:52;;;;;;;26.77;5.55;;;14.00;99.90;;;;;;4970923;28;20522;-79
2021/05/08 00:45:18;;;;;;;18.15;5.07;;;14.10;99.90;;;;;;4973264;28;20034;-79
2021/05/08 00:47:49;;;;;;;30.83;6.35;;;14.00;99.90;;;;;;4973579;28;20034;-80
2021/05/08 00:50:17;;;;;;;19.83;5.35;;;14.00;99.90;;;;;;4973293;28;20030;-79
2021/05/08 00:52:43;;;;;;;19.13;5.28;;;14.00;99.90;;;;;;4972445;28;20030;-79
2021/05/08 00:55:09;;;;;;;21.65;5.63;;;14.00;99.90;;;;;;4973431;28;20078;-79
2021/05/08 00:57:35;;;;;;;25.60;5.88;;;14.00;99.90;;;;;;4955800;28;20027;-79
2021/05/08 01:00:06;;;;;;;20.90;5.82;;;13.90;99.90;;;;;;4973177;28;20022;-79
2021/05/08 01:02:32;;;;;;;25.88;5.47;;;13.90;99.90;;;;;;4973561;28;20039;-79
2021/05/08 01:04:58;;;;;;;29.40;6.18;;;13.90;99.90;;;;;;4973348;28;20034;-79
2021/05/08 01:07:24;;;;;;;15.68;5.60;;;13.90;99.90;;;;;;4972188;28;20440;-80
2021/05/08 01:09:51;;;;;;;19.58;5.40;;;13.90;99.90;;;;;;4972897;28;20027;-79
2021/05/08 01:12:17;;;;;;;22.95;6.15;;;13.90;99.90;;;;;;4972068;28;20081;-79
2021/05/08 01:14:43;;;;;;;20.83;6.28;;;13.80;99.90;;;;;;4938466;29;20033;-78
2021/05/08 01:17:09;;;;;;;25.10;6.13;;;13.80;99.90;;;;;;4971605;28;20043;-79
2021/05/08 01:19:34;;;;;;;27.50;6.43;;;13.80;99.90;;;;;;4973291;28;20070;-79
2021/05/08 01:22:01;;;;;;;21.60;5.78;;;13.80;99.90;;;;;;4973225;28;20057;-79
2021/05/08 01:24:27;;;;;;;19.02;6.45;;;13.80;99.90;;;;;;4972628;28;20034;-79
2021/05/08 01:26:53;;;;;;;26.65;6.60;;;13.80;99.90;;;;;;4970734;28;20031;-79
2021/05/08 01:29:19;;;;;;;25.60;6.40;;;13.70;99.90;;;;;;4972919;28;20027;-79
2021/05/08 01:31:44;;;;;;;25.48;6.63;;;13.70;99.90;;;;;;4957453;28;20038;-79
2021/05/08 01:34:10;;;;;;;22.17;6.25;;;13.70;99.90;;;;;;4976941;28;20030;-79
2021/05/08 01:36:36;;;;;;;19.98;6.55;;;13.70;99.90;;;;;;4970711;28;20387;-79
2021/05/08 01:39:04;;;;;;;24.27;6.30;;;13.60;99.90;;;;;;4974747;28;20027;-79
2021/05/08 01:41:29;;;;;;;27.27;6.93;;;13.60;99.90;;;;;;4975721;28;20030;-79
2021/05/08 01:43:55;;;;;;;22.17;6.47;;;13.60;99.90;;;;;;4975579;28;20023;-79
2021/05/08 01:46:20;;;;;;;19.02;6.10;;;13.60;99.90;;;;;;4976519;28;20039;-79
2021/05/08 01:48:46;;;;;;;24.13;6.97;;;13.60;99.90;;;;;;4976781;28;20034;-79
2021/05/08 01:51:13;;;;;;;19.10;5.90;;;13.60;99.90;;;;;;4976813;28;20027;-79
2021/05/08 01:53:39;;;;;;;24.45;6.68;;;13.70;99.90;;;;;;4976621;28;20015;-79
2021/05/08 01:56:06;;;;;;;22.27;6.60;;;13.70;99.90;;;;;;4976442;28;20037;-79
2021/05/08 01:58:32;;;;;;;26.35;6.45;;;13.60;99.90;;;;;;4976679;28;20508;-79
2021/05/08 02:00:58;;;;;;;24.95;6.45;;;13.60;99.90;;;;;;4976406;28;20119;-79
2021/05/08 02:03:24;;;;;;;20.88;5.72;;;13.60;99.90;;;;;;4975381;28;20099;-79
2021/05/08 02:05:51;;;;;;;18.83;6.10;;;13.60;99.90;;;;;;4976855;28;20023;-79
2021/05/08 02:08:17;;;;;;;26.85;6.30;;;13.60;99.90;;;;;;4976344;28;20015;-79
2021/05/08 02:10:44;;;;;;;25.33;7.22;;;13.60;99.90;;;;;;4976431;28;20053;-80
2021/05/08 02:13:11;;;;;;;23.20;6.68;;;13.70;99.90;;;;;;4973488;28;20020;-79
2021/05/08 02:15:37;;;;;;;17.35;6.18;;;13.70;99.90;;;;;;4969610;28;20052;-79
2021/05/08 02:18:04;;;;;;;20.40;6.57;;;13.70;99.90;;;;;;4974793;28;20482;-79
2021/05/08 02:20:32;;;;;;;29.23;6.60;;;13.70;99.90;;;;;;4976379;28;20019;-79
2021/05/08 02:22:59;;;;;;;23.63;7.15;;;13.70;99.90;;;;;;4975098;28;20109;-79
2021/05/08 02:25:26;;;;;;;28.88;6.90;;;13.70;99.90;;;;;;4976101;28;20051;-79
2021/05/08 02:27:52;;;;;;;27.13;6.80;;;13.80;99.90;;;;;;4975774;28;20031;-79
2021/05/08 02:30:26;;;;;;;28.42;6.53;;;13.70;99.90;;;;;;4975883;28;20035;-79
2021/05/08 02:32:52;;;;;;;20.42;6.75;;;13.70;99.90;;;;;;4958723;28;20077;-79
2021/05/08 02:35:18;;;;;;;20.27;6.32;;;13.70;99.90;;;;;;4974562;28;20382;-79
2021/05/08 02:37:45;;;;;;;27.13;6.20;;;13.70;99.90;;;;;;4967011;28;20038;-79
2021/05/08 02:40:13;;;;;;;20.85;6.20;;;13.70;99.90;;;;;;4974241;28;20125;-74
2021/05/08 02:42:39;;;;;;;29.08;7.32;;;13.60;99.90;;;;;;4972630;28;20027;-79
2021/05/08 02:45:07;;;;;;;20.95;6.15;;;13.60;99.90;;;;;;4970750;28;20037;-79
2021/05/08 02:47:33;;;;;;;25.70;7.13;;;13.50;99.90;;;;;;4975874;28;20030;-79
2021/05/08 02:49:58;;;;;;;28.45;7.13;;;13.50;99.90;;;;;;4975750;28;20434;-79
2021/05/08 02:52:24;;;;;;;26.40;6.68;;;13.50;99.90;;;;;;4974402;28;20034;-79
2021/05/08 02:54:53;;;;;;;24.20;6.65;;;13.50;99.90;;;;;;4975310;28;20461;-79
2021/05/08 02:57:18;;;;;;;26.98;6.88;;;13.50;99.90;;;;;;4975348;28;20433;-79
2021/05/08 02:59:44;;;;;;;22.52;6.65;;;13.60;99.90;;;;;;4973834;28;20073;-79
2021/05/08 03:02:10;;;;;;;33.78;7.28;;;13.60;99.90;;;;;;4975450;28;20034;-79
2021/05/08 03:04:35;;;;;;;27.20;7.15;;;13.60;99.90;;;;;;4975608;28;20027;-79
2021/05/08 03:07:02;;;;;;;32.90;7.15;;;13.50;99.90;;;;;;4975647;28;20390;-79
2021/05/08 03:09:29;;;;;;;19.20;6.95;;;13.60;99.90;;;;;;4975029;28;20037;-79
2021/05/08 03:11:55;;;;;;;27.48;7.30;;;13.60;99.90;;;;;;4973958;28;20035;-79
2021/05/08 03:14:21;;;;;;;23.10;6.00;;;13.50;99.90;;;;;;4957036;28;20031;-79
2021/05/08 03:16:47;;;;;;;31.48;7.10;;;13.40;99.90;;;;;;4957702;28;20055;-79
2021/05/08 03:19:13;;;;;;;23.70;6.75;;;13.40;99.90;;;;;;4975195;28;20509;-79
2021/05/08 03:21:38;;;;;;;24.25;6.95;;;13.40;99.90;;;;;;4975088;28;20057;-79
2021/05/08 03:24:04;;;;;;;28.48;7.05;;;13.30;99.90;;;;;;4974606;28;20158;-79
2021/05/08 03:26:31;;;;;;;31.50;7.63;;;13.30;99.90;;;;;;4973370;28;20089;-79
2021/05/08 03:28:57;;;;;;;27.35;7.70;;;13.30;99.90;;;;;;4973204;28;20031;-79
2021/05/08 03:31:23;;;;;;;21.40;7.15;;;13.30;99.90;;;;;;4974918;28;20031;-79
2021/05/08 03:33:48;;;;;;;32.25;7.07;;;13.30;99.90;;;;;;4973427;28;20357;-79
2021/05/08 03:36:14;;;;;;;32.47;8.07;;;13.30;99.90;;;;;;4971522;28;20069;-79
2021/05/08 03:38:40;;;;;;;23.55;7.47;;;13.30;99.90;;;;;;4968741;28;20023;-78
2021/05/08 03:41:06;;;;;;;21.45;7.38;;;13.30;99.90;;;;;;4974012;28;20053;-79
2021/05/08 03:43:31;;;;;;;30.40;6.97;;;13.30;99.90;;;;;;4972077;28;20027;-78
2021/05/08 03:45:57;;;;;;;28.30;7.78;;;13.30;99.90;;;;;;4965375;28;20109;-79
2021/05/08 03:48:23;;;;;;;30.60;7.28;;;13.30;99.90;;;;;;4973994;28;20576;-78
2021/05/08 03:50:49;;;;;;;29.42;7.43;;;13.30;99.90;;;;;;4957169;28;20490;-79
2021/05/08 03:53:16;;;;;;;30.80;7.32;;;13.30;99.90;;;;;;4973851;28;20026;-79
2021/05/08 03:55:41;;;;;;;25.65;7.68;;;13.30;99.90;;;;;;4972501;28;20109;-79
2021/05/08 03:58:08;;;;;;;32.63;7.82;;;13.30;99.90;;;;;;4956836;28;20114;-79
2021/05/08 04:00:33;;;;;;;37.00;8.10;;;13.30;99.90;;;;;;4973926;28;20026;-79
2021/05/08 04:02:59;;;;;;;25.90;7.28;;;13.30;99.90;;;;;;4974369;28;20034;-79
2021/05/08 04:05:26;;;;;;;32.38;7.15;;;13.30;99.90;;;;;;4974480;28;20035;-79
2021/05/08 04:07:51;;;;;;;30.65;7.55;;;13.30;99.90;;;;;;4974409;28;20031;-79
2021/05/08 04:10:18;;;;;;;27.60;7.47;;;13.30;99.90;;;;;;4956432;28;20101;-78
2021/05/08 04:12:44;;;;;;;24.02;7.18;;;13.40;99.90;;;;;;4972932;28;20058;-79
2021/05/08 04:15:10;;;;;;;23.80;6.80;;;13.30;99.90;;;;;;4970807;28;20051;-79
2021/05/08 04:17:37;;;;;;;21.67;7.30;;;13.30;99.90;;;;;;4969027;28;20026;-79
2021/05/08 04:20:03;;;;;;;27.23;7.63;;;13.40;99.90;;;;;;4972890;28;20034;-79
2021/05/08 04:22:29;;;;;;;35.88;7.43;;;13.30;99.90;;;;;;4972720;28;20031;-79
2021/05/08 04:24:54;;;;;;;26.60;7.65;;;13.30;99.90;;;;;;4973167;28;20031;-79
2021/05/08 04:27:20;;;;;;;22.75;8.18;;;13.30;99.90;;;;;;4973510;28;20109;-79
2021/05/08 04:29:46;;;;;;;28.40;7.97;;;13.20;99.90;;;;;;4973571;28;20037;-79
2021/05/08 04:32:11;;;;;;;23.27;8.25;;;13.20;99.90;;;;;;4973841;28;20030;-79
2021/05/08 04:34:37;;;;;;;25.13;8.35;;;13.20;99.90;;;;;;4973993;28;20029;-79
2021/05/08 04:37:02;;;;;;;29.77;7.97;;;13.10;99.90;;;;;;4964080;28;20031;-79
2021/05/08 04:39:28;;;;;;;26.63;7.65;;;13.00;99.90;;;;;;4973269;28;20074;-79
2021/05/08 04:41:54;;;;;;;38.47;8.18;;;13.00;99.90;;;;;;4971025;28;20062;-78
2021/05/08 04:44:20;;;;;;;20.65;7.28;;;13.00;99.90;;;;;;4970857;28;20101;-79
2021/05/08 04:46:47;;;;;;;24.27;7.75;;;13.00;99.90;;;;;;4966119;28;20030;-79
2021/05/08 04:49:13;;;;;;;29.55;8.13;;;13.00;99.90;;;;;;4972589;28;20030;-79
2021/05/08 04:51:39;;;;;;;19.48;7.15;;;13.00;99.90;;;;;;4972146;28;20031;-79
2021/05/08 04:54:05;;;;;;;29.73;7.82;;;13.00;99.90;;;;;;4973255;28;20085;-79
2021/05/08 04:56:30;;;;;;;25.00;8.30;;;12.90;99.90;;;;;;4971681;28;20027;-79
2021/05/08 04:58:56;;;;;;;21.67;7.85;;;12.90;99.90;;;;;;4956069;28;20015;-79
2021/05/08 05:01:21;;;;;;;21.92;8.18;;;12.90;99.90;;;;;;4973535;28;20114;-79
2021/05/08 05:03:47;;;;;;;22.25;7.78;;;12.90;99.90;;;;;;4956432;28;20030;-79
2021/05/08 05:06:13;;;;;;;19.83;7.43;;;12.80;99.90;;;;;;4973238;28;20498;-79
2021/05/08 05:08:38;;;;;;;26.77;7.88;;;12.80;99.90;;;;;;4973623;28;20031;-79
2021/05/08 05:11:04;;;;;;;18.00;7.93;;;12.70;99.90;;;;;;4970533;28;20114;-79
2021/05/08 05:13:30;;;;;;;20.73;8.20;;;12.70;99.90;;;;;;4959249;28;20042;-79
2021/05/08 05:15:55;;;;;;;23.05;8.68;;;12.60;99.90;;;;;;4965668;28;20043;-79
2021/05/08 05:18:21;;;;;;;31.25;9.73;;;12.60;99.90;;;;;;4973472;28;20037;-79
2021/05/08 05:20:47;;;;;;;28.33;10.43;;;12.50;99.90;;;;;;4972060;28;20023;-79
2021/05/08 05:23:12;;;;;;;25.33;9.75;;;12.50;99.90;;;;;;4973261;28;20026;-79
2021/05/08 05:25:38;;;;;;;20.63;9.60;;;12.50;99.90;;;;;;4972809;28;20031;-79
2021/05/08 05:28:21;;;;;;;29.52;9.25;;;12.40;99.90;;;;;;4973054;28;20042;-79
2021/05/08 05:30:48;;;;;;;28.20;9.27;;;12.40;99.90;;;;;;4955925;28;20041;-79
2021/05/08 05:33:13;;;;;;;30.13;10.43;;;12.40;99.90;;;;;;4971803;28;20058;-79
2021/05/08 05:35:39;;;;;;;19.25;9.93;;;12.40;99.90;;;;;;4972733;28;20027;-79
2021/05/08 05:38:05;;;;;;;28.88;9.68;;;12.40;99.90;;;;;;4964932;28;20031;-79
2021/05/08 05:40:30;;;;;;;26.75;9.05;;;12.40;99.90;;;;;;4972856;28;20018;-79
2021/05/08 05:42:56;;;;;;;27.38;10.15;;;12.50;99.90;;;;;;4970167;28;20034;-79
2021/05/08 05:45:22;;;;;;;27.08;9.77;;;12.40;99.90;;;;;;4966143;28;20098;-79
2021/05/08 05:47:58;;;;;;;25.40;9.73;;;12.50;99.90;;;;;;4975464;28;20071;-79
2021/05/08 05:50:25;;;;;;;33.85;11.05;;;12.50;99.90;;;;;;4975241;28;20023;-79
2021/05/08 05:52:54;;;;;;;19.90;9.65;;;12.50;99.90;;;;;;4975090;28;20067;-79
2021/05/08 05:55:21;;;;;;;26.40;10.50;;;12.60;99.90;;;;;;4974662;28;20358;-79
2021/05/08 05:57:48;;;;;;;22.50;8.75;;;12.60;99.90;;;;;;4976472;28;20042;-79
2021/05/08 06:00:14;;;;;;;20.52;7.80;;;12.60;99.90;;;;;;4973331;28;20047;-79
2021/05/08 06:02:40;;;;;;;26.60;8.55;;;12.50;99.90;;;;;;4973227;28;20023;-79
2021/05/08 06:05:06;;;;;;;13.20;8.32;;;12.30;99.90;;;;;;4955291;28;20088;-79
2021/05/08 06:07:31;;;;;;;13.48;8.75;;;12.30;99.90;;;;;;4972832;28;20023;-79
2021/05/08 06:09:57;;;;;;;20.63;9.95;;;12.30;99.90;;;;;;4951879;28;20031;-81
2021/05/08 06:12:23;;;;;;;24.60;9.98;;;12.30;99.90;;;;;;4971444;28;20060;-79
2021/05/08 06:14:48;;;;;;;20.45;9.75;;;12.30;99.90;;;;;;4972084;28;20109;-79
2021/05/08 06:17:14;;;;;;;26.98;8.70;;;12.40;99.90;;;;;;4966069;28;20181;-79
2021/05/08 06:19:40;;;;;;;22.88;8.50;;;12.50;99.90;;;;;;4976669;28;20040;-79
2021/05/08 06:22:06;;;;;;;14.18;8.07;;;12.50;99.90;;;;;;4976121;28;20500;-79
2021/05/08 06:24:31;;;;;;;13.90;8.70;;;12.60;99.90;;;;;;4975832;28;20037;-79
2021/05/08 06:26:57;;;;;;;14.27;8.75;;;12.60;99.90;;;;;;4976060;28;20037;-79
2021/05/08 06:29:22;;;;;;;18.50;8.65;;;12.60;99.90;;;;;;4975704;28;20390;-79
2021/05/08 06:31:48;;;;;;;12.75;8.07;;;12.70;99.90;;;;;;4958803;28;20085;-79
2021/05/08 06:34:13;;;;;;;12.85;8.40;;;12.80;99.90;;;;;;4975754;28;20030;-79
2021/05/08 06:36:39;;;;;;;15.73;8.13;;;13.00;99.90;;;;;;4969184;28;20530;-78
2021/05/08 06:39:05;;;;;;;15.18;8.25;;;13.10;99.90;;;;;;4972616;28;20027;-79
2021/05/08 06:41:31;;;;;;;17.13;8.65;;;13.30;99.90;;;;;;4976094;28;20029;-79
2021/05/08 06:43:56;;;;;;;20.98;8.38;;;13.40;99.90;;;;;;4973237;28;20413;-79
2021/05/08 06:46:22;;;;;;;17.63;8.05;;;13.60;99.90;;;;;;4975850;28;20038;-79
2021/05/08 06:48:48;;;;;;;13.85;7.72;;;13.80;99.90;;;;;;4975880;28;20030;-79
2021/05/08 06:51:13;;;;;;;11.02;7.43;;;13.90;99.90;;;;;;4976008;28;20023;-79
2021/05/08 06:53:40;;;;;;;16.50;8.23;;;14.00;99.90;;;;;;4975600;28;20474;-79
2021/05/08 06:56:06;;;;;;;17.08;7.68;;;14.10;99.90;;;;;;4975563;28;20026;-79
2021/05/08 06:58:32;;;;;;;15.82;8.27;;;14.10;99.90;;;;;;4975369;28;20026;-79
2021/05/08 07:00:57;;;;;;;16.52;9.15;;;14.20;99.90;;;;;;4975889;28;20030;-79
2021/05/08 07:03:23;;;;;;;13.25;8.43;;;14.20;99.90;;;;;;4962696;28;20033;-79
2021/05/08 07:05:49;;;;;;;18.95;8.80;;;14.20;99.90;;;;;;4975577;28;20030;-79
2021/05/08 07:08:15;;;;;;;19.35;9.00;;;14.30;99.90;;;;;;4970836;28;20039;-79
2021/05/08 07:10:45;;;;;;;17.60;9.43;;;14.40;99.90;;;;;;4974154;28;20027;-79
2021/05/08 07:13:10;;;;;;;22.67;9.00;;;14.40;99.90;;;;;;4973549;28;20029;-79
2021/05/08 07:15:36;;;;;;;26.73;9.93;;;14.30;99.90;;;;;;4968897;28;20047;-79
2021/05/08 07:18:04;;;;;;;18.48;8.52;;;14.30;99.90;;;;;;4973971;28;20034;-78
2021/05/08 07:20:31;;;;;;;13.60;8.05;;;14.40;99.90;;;;;;4974064;28;20022;-79
2021/05/08 07:22:57;;;;;;;13.57;8.75;;;14.50;99.90;;;;;;4975281;28;20027;-79
2021/05/08 07:25:22;;;;;;;16.20;7.60;;;14.70;99.90;;;;;;4974728;28;20556;-79
2021/05/08 07:27:48;;;;;;;15.25;8.30;;;14.70;99.90;;;;;;4974547;28;20069;-79
2021/05/08 07:30:14;;;;;;;25.38;7.20;;;15.00;99.90;;;;;;4974952;28;20495;-79
2021/05/08 07:32:40;;;;;;;11.38;7.15;;;15.80;99.90;;;;;;4975206;28;20081;-79
2021/05/08 07:35:07;;;;;;;12.13;6.47;;;16.00;99.90;;;;;;4974611;28;20121;-79
2021/05/08 07:37:32;;;;;;;17.92;7.50;;;16.10;99.90;;;;;;4965914;28;20034;-79
2021/05/08 07:39:58;;;;;;;11.93;7.70;;;15.80;99.90;;;;;;4974833;28;20023;-78
2021/05/08 07:42:24;;;;;;;14.30;7.53;;;15.80;99.90;;;;;;4973330;28;20027;-79
2021/05/08 07:44:49;;;;;;;15.43;7.20;;;16.20;99.90;;;;;;4972820;28;20019;-79
2021/05/08 07:47:15;;;;;;;11.27;6.90;;;16.10;99.90;;;;;;4974667;28;20054;-79
2021/05/08 07:49:41;;;;;;;16.58;7.68;;;16.00;99.90;;;;;;4973519;28;20039;-79
2021/05/08 07:52:07;;;;;;;14.15;7.93;;;16.40;99.90;;;;;;4973432;28;20437;-75
2021/05/08 07:54:33;;;;;;;12.63;7.85;;;16.00;99.90;;;;;;4974066;28;20034;-79
2021/05/08 07:56:59;;;;;;;14.57;8.07;;;15.80;99.90;;;;;;4955420;28;20162;-79
2021/05/08 07:59:24;;;;;;;15.77;7.25;;;15.80;99.90;;;;;;4966122;28;20035;-79
2021/05/08 08:01:50;;;;;;;9.52;6.25;;;16.50;99.90;;;;;;4970056;28;20034;-79
2021/05/08 08:04:16;;;;;;;11.50;7.53;;;16.70;99.90;;;;;;4966610;28;20113;-79
2021/05/08 08:06:41;;;;;;;10.45;5.20;;;16.30;99.90;;;;;;4974413;28;20375;-79
2021/05/08 08:09:07;;;;;;;12.05;6.25;;;18.80;98.10;;;;;;4962558;28;20115;-79
2021/05/08 08:11:33;;;;;;;10.95;5.45;;;18.80;96.40;;;;;;4972934;28;20031;-79
2021/05/08 08:13:59;;;;;;;8.93;5.75;;;18.00;98.10;;;;;;4971423;28;20027;-79
2021/05/08 08:16:25;;;;;;;5.57;4.68;;;17.10;99.90;;;;;;4966100;28;20047;-79
2021/05/08 08:18:50;;;;;;;13.23;5.68;;;18.30;96.90;;;;;;4974240;28;20438;-79
2021/05/08 08:21:16;;;;;;;6.00;4.00;;;19.40;96.10;;;;;;4956815;28;20023;-79
2021/05/08 08:23:42;;;;;;;5.75;3.63;;;22.20;90.50;;;;;;4972594;28;20142;-79
2021/05/08 08:26:09;;;;;;;6.80;3.53;;;23.30;83.70;;;;;;4972687;28;20037;-79
2021/05/08 08:28:34;;;;;;;5.68;3.65;;;24.60;79.40;;;;;;4973754;28;20061;-79
2021/05/08 08:31:01;;;;;;;6.78;3.28;;;25.10;74.90;;;;;;4973933;28;20506;-79
2021/05/08 08:33:26;;;;;;;3.83;3.20;;;25.20;73.70;;;;;;4973487;28;20026;-79
2021/05/08 08:35:54;;;;;;;6.20;3.40;;;25.50;73.10;;;;;;4973479;28;20413;-79
2021/05/08 08:38:20;;;;;;;7.13;3.22;;;25.90;72.20;;;;;;4965906;28;20453;-79
2021/05/08 08:40:46;;;;;;;7.93;3.40;;;26.40;71.90;;;;;;4973229;28;20022;-79
2021/05/08 08:43:12;;;;;;;6.18;3.50;;;26.10;70.70;;;;;;4972372;28;20045;-80
2021/05/08 08:45:39;;;;;;;6.32;3.70;;;25.90;70.20;;;;;;4972182;28;20482;-79
2021/05/08 08:48:05;;;;;;;8.05;3.30;;;25.90;70.20;;;;;;4973534;28;20481;-79
2021/05/08 08:50:35;;;;;;;6.75;2.72;;;26.30;68.60;;;;;;4973841;28;20030;-80
2021/05/08 08:53:02;;;;;;;8.82;3.30;;;26.60;67.50;;;;;;4973595;28;20034;-79
2021/05/08 08:55:28;;;;;;;14.50;4.10;;;26.40;68.20;;;;;;4973172;28;20066;-79
2021/05/08 08:57:55;;;;;;;5.50;2.72;;;26.50;67.30;;;;;;4973276;28;20070;-79
2021/05/08 09:00:21;;;;;;;5.75;3.05;;;27.40;64.80;;;;;;4971872;28;20027;-79
2021/05/08 09:02:49;;;;;;;8.57;2.95;;;27.70;65.20;;;;;;4973630;28;20034;-80
2021/05/08 09:05:24;;;;;;;6.22;2.60;;;28.00;63.20;;;;;;4973045;28;20039;-80
2021/05/08 09:07:51;;;;;;;4.93;2.60;;;27.50;63.20;;;;;;4956192;28;20027;-79
2021/05/08 09:10:24;;;;;;;10.02;3.28;;;27.20;64.10;;;;;;4971218;28;20054;-80
2021/05/08 09:12:51;;;;;;;5.40;2.60;;;27.10;64.30;;;;;;4965314;28;20101;-79
2021/05/08 09:15:37;;;;;;;11.02;3.20;;;27.30;62.70;;;;;;4968313;28;20410;-79
2021/05/08 09:18:04;;;;;;;6.72;2.60;;;26.10;64.80;;;;;;4971774;28;20047;-80
2021/05/08 09:20:50;;;;;;;4.93;2.45;;;25.90;66.00;;;;;;4973345;28;20031;-79
2021/05/08 09:23:20;;;;;;;6.50;2.72;;;25.90;64.20;;;;;;4961547;28;20026;-79
2021/05/08 09:26:14;;;;;;;8.25;2.47;;;27.00;63.00;;;;;;4972343;28;20023;-79
2021/05/08 09:28:53;;;;;;;8.60;3.03;;;27.00;61.90;;;;;;4971700;28;20502;-79
2021/05/08 09:31:19;;;;;;;9.63;3.00;;;26.80;63.40;;;;;;4973131;28;20460;-80
2021/05/08 09:33:52;;;;;;;5.57;2.88;;;26.70;60.50;;;;;;4971951;28;20074;-79
2021/05/08 09:36:18;;;;;;;5.13;2.65;;;27.10;63.40;;;;;;4969301;28;20027;-79
2021/05/08 09:38:45;;;;;;;6.32;2.70;;;26.10;63.30;;;;;;4966262;28;20445;-80
2021/05/08 09:41:13;;;;;;;2.80;1.92;;;26.10;61.80;;;;;;4972233;28;20106;-80
2021/05/08 09:43:39;;;;;;;10.48;2.88;;;26.20;63.50;;;;;;4971223;28;20062;-80
2021/05/08 09:46:06;;;;;;;3.80;2.40;;;26.90;62.70;;;;;;4971617;28;20490;-80
2021/05/08 09:48:36;;;;;;;7.90;2.78;;;27.20;60.50;;;;;;4972766;28;20050;-79
2021/05/08 09:51:25;;;;;;;9.63;2.95;;;26.70;60.50;;;;;;4973114;28;20015;-80
2021/05/08 09:54:15;;;;;;;6.15;2.88;;;27.00;60.90;;;;;;4976474;28;20031;-80
2021/05/08 09:56:43;;;;;;;3.88;2.60;;;27.10;60.30;;;;;;4976567;28;20105;-80
2021/05/08 09:59:26;;;;;;;6.10;2.83;;;27.10;61.10;;;;;;4976764;28;20031;-80
2021/05/08 10:02:01;;;;;;;5.72;2.70;;;27.30;59.10;;;;;;4976726;28;20418;-80
2021/05/08 10:04:40;;;;;;;6.72;2.80;;;26.60;60.70;;;;;;4976686;28;20027;-80
2021/05/08 10:07:05;;;;;;;7.10;3.47;;;26.20;61.10;;;;;;4965288;28;20027;-79
2021/05/08 10:09:32;;;;;;;6.47;2.85;;;27.10;62.00;;;;;;4963594;28;20027;-79
2021/05/08 10:12:01;;;;;;;4.25;2.70;;;27.50;61.10;;;;;;4974739;28;20050;-79
2021/05/08 10:14:27;;;;;;;3.80;2.38;;;27.60;59.60;;;;;;4976008;28;20498;-80
2021/05/08 10:16:55;;;;;;;5.93;2.33;;;26.80;58.00;;;;;;4969039;28;20042;-80
2021/05/08 10:19:21;;;;;;;5.00;3.33;;;27.40;58.60;;;;;;4959413;28;20058;-80
2021/05/08 10:21:47;;;;;;;6.85;2.63;;;28.10;59.90;;;;;;4976358;28;20046;-78
2021/05/08 10:24:14;;;;;;;9.90;2.65;;;27.50;57.10;;;;;;4975780;28;20113;-79
2021/05/08 10:26:40;;;;;;;5.90;2.97;;;26.70;59.00;;;;;;4958493;28;20027;-76
2021/05/08 10:29:06;;;;;;;6.32;3.00;;;26.20;61.20;;;;;;4975992;28;20046;-79
2021/05/08 10:31:33;;;;;;;6.47;2.83;;;25.90;61.10;;;;;;4976217;28;20439;-79
2021/05/08 10:33:59;;;;;;;6.40;2.97;;;26.60;59.30;;;;;;4975850;28;20042;-79
2021/05/08 10:36:44;;;;;;;6.05;3.08;;;27.00;59.10;;;;;;4970783;28;20027;-80
2021/05/08 10:39:10;;;;;;;6.65;3.13;;;26.30;60.90;;;;;;4974980;28;20073;-80
2021/05/08 10:41:52;;;;;;;6.22;3.30;;;26.60;61.80;;;;;;4975391;28;20429;-78
2021/05/08 10:44:43;;;;;;;6.03;3.20;;;27.00;60.50;;;;;;4970633;28;20023;-77
2021/05/08 10:47:09;;;;;;;6.13;3.22;;;27.50;60.30;;;;;;4974928;28;20037;-78
2021/05/08 10:49:34;;;;;;;6.18;2.92;;;27.40;60.50;;;;;;4974649;28;20034;-78
2021/05/08 10:52:03;;;;;;;5.30;3.00;;;27.40;60.10;;;;;;4976036;28;20173;-79
2021/05/08 10:54:44;;;;;;;7.72;3.58;;;26.40;61.50;;;;;;4975390;28;20030;-79
2021/05/08 10:57:16;;;;;;;8.23;3.55;;;26.60;63.80;;;;;;4962696;28;20048;-80
2021/05/08 11:00:10;;;;;;;;;;;26.90;62.40;;;;;;4976070;28;20038;-79
2021/05/08 11:02:43;;;;;;;6.57;3.65;;;26.40;62.10;;;;;;4966498;28;19906;-79
2021/05/08 11:05:21;;;;;;;;;;;27.10;65.00;;;;;;4975947;28;20055;-80
2021/05/08 11:07:47;;;;;;;6.45;3.78;;;26.60;61.30;;;;;;4975796;28;19914;-80
2021/05/08 11:10:31;;;;;;;6.68;3.47;;;25.90;63.80;;;;;;4974718;28;20031;-79
2021/05/08 11:13:08;;;;;;;7.47;3.25;;;26.40;65.40;;;;;;4970161;28;20131;-79
2021/05/08 11:15:52;;;;;;;5.30;3.10;;;26.70;63.80;;;;;;4969178;28;20449;-81
2021/05/08 11:18:33;;;;;;;7.18;3.65;;;26.10;64.80;;;;;;4969555;28;20039;-80
2021/05/08 11:21:03;;;;;;;6.32;3.38;;;25.80;65.60;;;;;;4975810;28;20050;-80
2021/05/08 11:23:48;;;;;;;7.25;3.58;;;25.30;66.40;;;;;;4975248;28;20452;-79
2021/05/08 11:26:23;;;;;;;8.48;3.00;;;25.40;66.60;;;;;;4974431;28;20094;-80
2021/05/08 11:29:30;;;;;;;5.38;3.50;;;26.00;65.10;;;;;;4975046;28;20498;-79
2021/05/08 11:31:58;;;;;;;4.60;2.92;;;25.40;66.10;;;;;;4967682;28;20046;-80
2021/05/08 11:34:25;;;;;;;6.72;3.15;;;26.10;67.70;;;;;;4975318;28;20023;-79
2021/05/08 11:37:04;;;;;;;6.03;3.20;;;26.60;65.40;;;;;;4966448;28;20029;-79
2021/05/08 11:39:36;;;;;;;11.00;3.42;;;27.30;64.10;;;;;;4962802;28;20394;-80
2021/05/08 11:42:15;;;;;;;7.32;3.00;;;27.10;62.80;;;;;;4973371;28;20038;-79
2021/05/08 11:44:56;;;;;;;5.53;2.88;;;26.60;64.20;;;;;;4974796;28;20030;-80
2021/05/08 11:47:34;;;;;;;4.43;2.60;;;27.40;62.30;;;;;;4955985;28;20054;-79
2021/05/08 11:50:06;;;;;;;5.35;3.03;;;27.40;62.10;;;;;;4974785;28;20522;-79
2021/05/08 11:52:52;;;;;;;5.32;2.92;;;27.50;62.30;;;;;;4973647;28;20034;-79
2021/05/08 11:55:20;;;;;;;4.68;2.70;;;26.60;65.00;;;;;;4972673;28;20034;-80
2021/05/08 11:57:52;;;;;;;7.85;2.95;;;26.90;65.70;;;;;;4974257;28;20030;-80
2021/05/08 12:00:26;;;;;;;10.57;3.17;;;26.70;63.80;;;;;;4956985;28;20033;-81
2021/05/08 12:03:09;;;;;;;8.18;3.42;;;26.50;65.70;;;;;;4974720;28;20568;-80
2021/05/08 12:05:39;;;;;;;4.47;2.92;;;26.30;66.80;;;;;;4973303;28;20401;-79
2021/05/08 12:08:05;;;;;;;7.45;2.83;;;26.30;67.80;;;;;;4974328;28;20123;-80
2021/05/08 12:10:38;;;;;;;6.15;3.22;;;26.50;66.40;;;;;;4973705;28;20571;-81
2021/05/08 12:13:05;;;;;;;5.18;2.70;;;26.10;67.30;;;;;;4972519;28;20043;-82
2021/05/08 12:15:39;;;;;;;5.97;3.33;;;26.40;67.50;;;;;;4967681;28;20146;-80
2021/05/08 12:18:06;;;;;;;6.40;3.70;;;26.50;68.80;;;;;;4972779;28;20050;-81
2021/05/08 12:20:41;;;;;;;9.45;3.65;;;26.20;67.90;;;;;;4974308;28;20558;-80
2021/05/08 12:23:16;;;;;;;4.75;3.08;;;25.90;68.00;;;;;;4974249;28;20110;-81
2021/05/08 12:25:43;;;;;;;4.28;2.60;;;26.40;69.50;;;;;;4973068;28;20375;-80
2021/05/08 12:28:22;;;;;;;5.22;2.40;;;27.20;66.50;;;;;;4972601;28;20027;-80
2021/05/08 12:30:50;;;;;;;4.57;3.40;;;26.80;68.00;;;;;;4973937;28;20023;-80
2021/05/08 12:33:20;;;;;;;10.90;3.20;;;26.90;67.90;;;;;;4972693;28;20410;-81
2021/05/08 12:35:47;;;;;;;6.15;3.03;;;26.40;68.80;;;;;;4973826;28;20030;-80
2021/05/08 12:38:16;;;;;;;4.75;3.42;;;26.30;68.60;;;;;;4964285;28;20086;-80
2021/05/08 12:40:42;;;;;;;6.00;3.22;;;26.20;68.60;;;;;;4973427;28;20027;-80
2021/05/08 12:43:07;;;;;;;3.80;3.33;;;26.90;67.10;;;;;;4972097;28;20078;-80
2021/05/08 12:45:33;;;;;;;4.97;3.50;;;26.50;68.40;;;;;;4973742;28;20191;-80